AFR659 LFQQ-LGAV
Flight info
| Callsign | AFR659 |
|---|---|
| Flight time | N/A |
| Altitude | FL370 |
| Route | CIV6L CIV UM617 BUPAL UL607 SPI LIRSU ULNOK VIBOM NOMBO RIDAR RADIZ NIPEL ZARVE KOTOR TUPUS MONID NAVSU EMKES XELMI AKIKA ENFAR TALAS UM749 ELPIS SIGFO UM749 ROPOX ROPO1K |
| Aircraft | A321/M-SDE3FGHIRWY/LB1 |
Departure
| Time | 2026-05-04 05:58 |
|---|---|
| Airport | Lille Airport (LFQQ) |
Arrival
| Time | N/A |
|---|---|
| Airport | Athens Eleftherios Venizelos International Airport (LGAV) |
| Time | Latitude | Longitude | Altitude | Speed | Heading |
|---|---|---|---|---|---|
| 2026-05-04 05:29 | 50.57040 | 3.10291 | 148 ft | 0 kts | 347° |
| 2026-05-04 05:36 | 50.57031 | 3.10294 | 148 ft | 2 kts | 347° |
| 2026-05-04 05:36 | 50.57016 | 3.10297 | 148 ft | 2 kts | 9° |
| 2026-05-04 05:37 | 50.57002 | 3.10290 | 148 ft | 2 kts | 27° |
| 2026-05-04 05:37 | 50.56989 | 3.10276 | 148 ft | 2 kts | 47° |
| 2026-05-04 05:37 | 50.56981 | 3.10256 | 148 ft | 2 kts | 66° |
| 2026-05-04 05:38 | 50.56977 | 3.10236 | 149 ft | 0 kts | 77° |
| 2026-05-04 05:42 | 50.56977 | 3.10240 | 148 ft | 2 kts | 78° |
| 2026-05-04 05:42 | 50.56975 | 3.10266 | 148 ft | 4 kts | 130° |
| 2026-05-04 05:42 | 50.56948 | 3.10294 | 148 ft | 6 kts | 157° |
| 2026-05-04 05:42 | 50.56904 | 3.10311 | 147 ft | 8 kts | 168° |
| 2026-05-04 05:43 | 50.56844 | 3.10329 | 146 ft | 10 kts | 168° |
| 2026-05-04 05:43 | 50.56788 | 3.10403 | 145 ft | 11 kts | 108° |
| 2026-05-04 05:43 | 50.56804 | 3.10530 | 144 ft | 13 kts | 75° |
| 2026-05-04 05:45 | 50.56866 | 3.11607 | 133 ft | 13 kts | 166° |
| 2026-05-04 05:45 | 50.56792 | 3.11644 | 133 ft | 2 kts | 147° |
| 2026-05-04 05:47 | 50.56776 | 3.11668 | 133 ft | 0 kts | 128° |
| 2026-05-04 05:49 | 50.56775 | 3.11669 | 133 ft | 0 kts | 128° |
| 2026-05-04 05:49 | 50.56775 | 3.11670 | 133 ft | 1 kts | 129° |
| 2026-05-04 05:55 | 50.56772 | 3.11675 | 133 ft | 1 kts | 127° |
| 2026-05-04 05:55 | 50.56770 | 3.11690 | 133 ft | 2 kts | 92° |
| 2026-05-04 05:55 | 50.56773 | 3.11714 | 133 ft | 3 kts | 76° |
| 2026-05-04 05:55 | 50.56781 | 3.11763 | 134 ft | 6 kts | 76° |
| 2026-05-04 05:56 | 50.56794 | 3.11850 | 134 ft | 10 kts | 77° |
| 2026-05-04 05:56 | 50.56812 | 3.11964 | 135 ft | 11 kts | 68° |
| 2026-05-04 05:56 | 50.56858 | 3.12059 | 135 ft | 10 kts | 46° |
| 2026-05-04 05:56 | 50.56878 | 3.12147 | 132 ft | 10 kts | 115° |
| 2026-05-04 05:57 | 50.56830 | 3.12118 | 134 ft | 9 kts | 253° |
| 2026-05-04 05:57 | 50.56827 | 3.12100 | 134 ft | 2 kts | 253° |
| 2026-05-04 05:57 | 50.56780 | 3.11764 | 134 ft | 69 kts | 258° |
| 2026-05-04 05:57 | 50.56625 | 3.10675 | 141 ft | 134 kts | 257° |
| 2026-05-04 05:58 | 50.56391 | 3.09013 | 361 ft | 166 kts | 258° |
| 2026-05-04 05:58 | 50.56167 | 3.07255 | 969 ft | 169 kts | 263° |
| 2026-05-04 05:58 | 50.56069 | 3.05417 | 1627 ft | 173 kts | 268° |
| 2026-05-04 05:58 | 50.56090 | 3.03566 | 2286 ft | 171 kts | 274° |
| 2026-05-04 05:59 | 50.56187 | 3.01695 | 2788 ft | 176 kts | 275° |
| 2026-05-04 05:59 | 50.56272 | 2.99774 | 3333 ft | 182 kts | 270° |
| 2026-05-04 05:59 | 50.56094 | 2.97741 | 3756 ft | 196 kts | 253° |
| 2026-05-04 05:59 | 50.55296 | 2.96009 | 4327 ft | 202 kts | 216° |
| 2026-05-04 06:00 | 50.54020 | 2.95164 | 4985 ft | 203 kts | 199° |
| 2026-05-04 06:00 | 50.52685 | 2.94495 | 5592 ft | 206 kts | 200° |
| 2026-05-04 06:00 | 50.51309 | 2.93673 | 5972 ft | 221 kts | 204° |
| 2026-05-04 06:00 | 50.49776 | 2.92991 | 6219 ft | 245 kts | 184° |
| 2026-05-04 06:01 | 50.48057 | 2.93561 | 6541 ft | 267 kts | 154° |
| 2026-05-04 06:01 | 50.46640 | 2.95508 | 7025 ft | 281 kts | 129° |
| 2026-05-04 06:03 | 50.42866 | 3.03143 | 9328 ft | 292 kts | 120° |